Time;durP1;ratioP1;P1;durP2;ratioP2;P2;SDS_P1;SDS_P2;PMS_P1;PMS_P2;Temp;Humidity;BMP_temperature;BMP_pressure;BME280_temperature;BME280_humidity;BME280_pressure;Samples;Min_cycle;Max_cycle;Signal;HPM_P1;HPM_P2
2021/03/15 16:38:57;;;;;;;33.63;21.23;;;7.10;91.00;;;;;;5069416;28;20778;-93
2021/03/15 16:41:26;;;;;;;35.20;20.38;;;7.10;91.70;;;;;;5053584;28;20503;-94
2021/03/15 16:43:54;;;;;;;31.17;20.35;;;7.20;91.90;;;;;;5072720;28;20033;-94
2021/03/15 16:46:20;;;;;;;34.95;19.85;;;7.30;91.80;;;;;;5056043;28;20028;-96
2021/03/15 16:48:46;;;;;;;33.58;23.38;;;7.40;91.30;;;;;;5055973;28;20040;-95
2021/03/15 16:51:15;;;;;;;59.15;40.15;;;7.50;91.00;;;;;;5060843;28;20080;-95
2021/03/15 16:53:41;;;;;;;87.30;57.70;;;7.70;90.80;;;;;;5068456;28;20088;-96
2021/03/15 16:56:07;;;;;;;58.72;39.83;;;7.80;90.30;;;;;;5080740;28;20437;-93
2021/03/15 16:58:33;;;;;;;85.80;59.70;;;7.80;90.20;;;;;;5055474;28;20437;-95
2021/03/15 17:00:59;;;;;;;30.88;19.33;;;7.90;90.20;;;;;;5055588;28;20068;-94
2021/03/15 17:03:25;;;;;;;32.17;20.42;;;7.90;89.80;;;;;;5048542;28;20060;-96
2021/03/15 17:05:51;;;;;;;29.60;20.17;;;8.00;90.00;;;;;;5073920;28;20435;-95
2021/03/15 17:08:18;;;;;;;32.75;21.00;;;8.10;89.50;;;;;;5055338;28;20025;-96
2021/03/15 17:10:45;;;;;;;30.17;18.88;;;8.10;89.10;;;;;;5078130;28;20025;-94
2021/03/15 17:13:14;;;;;;;31.15;18.33;;;8.10;88.50;;;;;;5069201;28;20005;-96
2021/03/15 17:15:40;;;;;;;33.83;20.75;;;8.10;88.20;;;;;;5067062;28;20020;-94
2021/03/15 17:18:06;;;;;;;34.72;21.80;;;8.10;88.40;;;;;;5069168;28;20098;-93
2021/03/15 17:20:38;;;;;;;35.35;20.30;;;8.10;88.50;;;;;;5052825;28;21053;-95
2021/03/15 17:23:05;;;;;;;33.17;20.17;;;8.10;88.60;;;;;;5063364;28;20040;-95
2021/03/15 17:25:31;;;;;;;32.22;20.60;;;8.10;88.70;;;;;;5059390;28;20056;-92
2021/03/15 17:27:57;;;;;;;33.17;20.63;;;8.10;88.30;;;;;;5069651;28;20650;-95
2021/03/15 17:30:25;;;;;;;36.00;23.25;;;8.10;88.00;;;;;;5052223;28;20512;-93
2021/03/15 17:32:52;;;;;;;37.67;22.23;;;8.10;88.20;;;;;;5065921;28;20376;-93
2021/03/15 17:35:19;;;;;;;39.83;25.17;;;8.10;87.90;;;;;;5054234;28;20113;-95
2021/03/15 17:37:45;;;;;;;38.05;22.33;;;8.10;87.90;;;;;;5052418;28;20512;-93
2021/03/15 17:40:11;;;;;;;28.95;18.88;;;8.10;87.80;;;;;;5055281;28;20021;-93
2021/03/15 17:42:37;;;;;;;35.38;19.15;;;8.10;87.50;;;;;;5071380;28;20025;-92
2021/03/15 17:45:12;;;;;;;34.45;20.67;;;8.10;87.70;;;;;;5070287;28;20100;-90
2021/03/15 17:47:41;;;;;;;32.17;20.20;;;8.10;87.70;;;;;;5050970;28;20029;-93
2021/03/15 17:50:08;;;;;;;29.85;19.77;;;8.10;87.50;;;;;;5064071;28;20017;-93
2021/03/15 17:52:35;;;;;;;29.10;17.95;;;8.10;87.50;;;;;;5038203;28;20028;-93
2021/03/15 17:55:01;;;;;;;34.38;15.57;;;8.10;87.50;;;;;;5037173;28;20029;-93
2021/03/15 17:57:26;;;;;;;28.88;19.08;;;8.10;87.20;;;;;;5034527;28;20040;-94
2021/03/15 17:59:53;;;;;;;26.55;16.58;;;8.10;87.50;;;;;;5037550;28;20116;-96
2021/03/15 18:02:20;;;;;;;28.90;18.88;;;8.00;87.10;;;;;;5053312;28;20031;-96
2021/03/15 18:04:45;;;;;;;30.80;17.98;;;8.00;87.30;;;;;;5039453;28;20033;-95
2021/03/15 18:07:11;;;;;;;27.42;19.15;;;8.00;87.90;;;;;;5039777;28;20096;-93
2021/03/15 18:09:37;;;;;;;26.17;15.68;;;8.00;87.60;;;;;;5039904;28;20028;-94
2021/03/15 18:12:03;;;;;;;26.27;15.60;;;7.90;87.30;;;;;;5038397;28;20112;-94
2021/03/15 18:14:29;;;;;;;30.23;18.85;;;7.90;87.30;;;;;;5033612;28;20465;-92
2021/03/15 18:16:54;;;;;;;28.02;18.83;;;7.90;87.40;;;;;;5036769;28;20021;-93
2021/03/15 18:19:20;;;;;;;34.50;21.27;;;7.80;87.20;;;;;;5054426;28;20440;-95
2021/03/15 18:21:47;;;;;;;30.77;19.05;;;7.80;87.50;;;;;;5037169;28;20025;-92
2021/03/15 18:24:12;;;;;;;28.65;18.95;;;7.80;87.50;;;;;;5056433;28;20037;-93
2021/03/15 18:26:38;;;;;;;25.77;17.52;;;7.70;87.60;;;;;;5036955;28;20351;-95
2021/03/15 18:29:07;;;;;;;28.05;18.70;;;7.70;87.70;;;;;;5063975;28;20021;-96
2021/03/15 18:31:38;;;;;;;27.00;17.58;;;7.60;87.80;;;;;;5043638;28;20010;-96
2021/03/15 18:34:05;;;;;;;31.35;16.88;;;7.60;87.70;;;;;;5038260;28;20025;-95
2021/03/15 18:36:32;;;;;;;30.42;20.70;;;7.60;87.50;;;;;;5037100;28;20028;-92
2021/03/15 18:38:58;;;;;;;29.27;20.70;;;7.60;87.60;;;;;;5031374;28;20363;-93
2021/03/15 18:41:24;;;;;;;45.75;36.58;;;7.50;87.30;;;;;;5036621;28;20025;-92
2021/03/15 18:44:35;;;;;;;;;;;;;;;;;;;;;
2021/03/15 18:47:05;;;;;;;40.00;29.95;;;7.30;88.00;;;;;;5045586;28;20037;-96
2021/03/15 18:49:31;;;;;;;33.45;23.33;;;7.30;88.10;;;;;;5042346;28;20069;-96
2021/03/15 18:52:13;;;;;;;35.08;22.27;;;7.20;88.20;;;;;;5038868;28;20017;-94
2021/03/15 18:54:52;;;;;;;31.98;21.63;;;7.10;88.40;;;;;;5036792;28;20036;-94
2021/03/15 18:57:37;;;;;;;30.42;20.58;;;7.10;88.90;;;;;;5037553;28;20078;-93
2021/03/15 19:06:51;;;;;;;38.58;25.17;;;6.90;88.90;;;;;;5020719;28;20040;-94
2021/03/15 19:09:17;;;;;;;41.55;27.10;;;6.90;89.40;;;;;;5061061;28;20025;-95
2021/03/15 19:11:45;;;;;;;40.63;27.80;;;6.80;89.60;;;;;;5039620;28;20025;-93
2021/03/15 19:14:11;;;;;;;38.03;25.02;;;6.80;89.80;;;;;;5038207;28;20029;-96
2021/03/15 19:16:40;;;;;;;39.28;25.17;;;6.80;90.00;;;;;;5038574;28;20020;-94
2021/03/15 19:19:06;;;;;;;35.95;24.42;;;6.80;90.10;;;;;;5037595;28;20522;-94
2021/03/15 19:21:37;;;;;;;38.00;24.42;;;6.80;90.10;;;;;;5034601;28;20017;-95
2021/03/15 19:24:24;;;;;;;40.22;23.80;;;6.80;89.90;;;;;;5046833;28;20025;-92
2021/03/15 19:26:51;;;;;;;39.03;24.08;;;6.80;89.60;;;;;;5038364;28;20029;-95
2021/03/15 19:29:17;;;;;;;38.08;24.27;;;6.90;89.60;;;;;;5054083;28;20465;-91
2021/03/15 19:31:46;;;;;;;37.28;24.02;;;6.90;89.50;;;;;;5061435;28;20024;-92
2021/03/15 19:34:32;;;;;;;38.78;26.27;;;6.90;89.70;;;;;;5040065;28;20025;-92
2021/03/15 19:36:58;;;;;;;41.08;26.98;;;6.80;89.40;;;;;;5035993;28;20051;-92
2021/03/15 19:39:46;;;;;;;45.95;26.52;;;6.80;89.60;;;;;;5034463;28;20032;-92
2021/03/15 19:42:12;;;;;;;42.20;25.38;;;6.80;90.10;;;;;;5036393;28;20106;-92
2021/03/15 19:44:38;;;;;;;40.58;26.23;;;6.80;89.60;;;;;;5054780;28;20025;-92
2021/03/15 19:47:04;;;;;;;47.17;27.90;;;6.80;89.80;;;;;;5052635;28;20096;-91
2021/03/15 19:49:30;;;;;;;47.50;26.75;;;6.70;89.80;;;;;;5056594;28;20021;-92
2021/03/15 19:51:56;;;;;;;47.45;26.83;;;6.70;89.80;;;;;;5041609;28;20367;-90
2021/03/15 19:54:21;;;;;;;49.00;27.23;;;6.70;90.00;;;;;;5058440;28;20032;-91
2021/03/15 19:56:50;;;;;;;44.42;27.52;;;6.70;90.00;;;;;;5045586;28;20037;-91
2021/03/15 20:24:12;;;;;;;38.83;23.20;;;5.50;88.50;;;;;;5086947;28;20945;-94
2021/03/15 20:26:38;;;;;;;36.00;23.15;;;5.30;89.80;;;;;;5069851;28;20116;-94
2021/03/15 20:29:05;;;;;;;37.83;24.25;;;5.20;90.40;;;;;;5070487;28;20029;-95
2021/03/15 20:31:31;;;;;;;41.25;26.40;;;5.10;90.90;;;;;;5070234;28;20025;-95
2021/03/15 20:33:57;;;;;;;48.28;29.25;;;5.10;91.20;;;;;;5069960;28;20032;-95
